Terminal Aerodrome Forecast
Issued by NWS

Home | Current Version | Previous Version | Text Only | Print | Product List | Glossary On
Versions: 1 2 3 4 5 6 7 8 9 10 11 12 13 14 15 16 17 18
000
FTUS46 KLOX 242300 RRA
TAFSBP
TAF
KSBP 242340Z 2500/2524 31020G30KT P6SM SKC
     FM250200 32012KT P6SM SKC
     FM250500 30006KT P6SM SCT200
     FM251000 VRB03KT P6SM SCT100 BKN200
     FM251600 32008KT P6SM VCSH BKN100 BKN200
     FM252000 30016KT P6SM VCSH SCT040 OVC080
      TEMPO 2520/2524 6SM -SHRA BKN040=

USA.gov is the U.S. government's official web portal to all federal, state and local government web resources and services.